EDT,Max TemperatureF,Mean TemperatureF,Min TemperatureF,Max Dew PointF,MeanDew PointF,Min DewpointF,Max Humidity, Mean Humidity, Min Humidity, Max Sea Level PressureIn, Mean Sea Level PressureIn, Min Sea Level PressureIn, Max VisibilityMiles, Mean VisibilityMiles, Min VisibilityMiles, Max Wind SpeedMPH, Mean Wind SpeedMPH, Max Gust SpeedMPH,PrecipitationIn, CloudCover, Events, WindDirDegrees
2012-10-1,66,53,40,48,44,39,96,71,45,29.97,29.91,29.86,10,10,9,8,1,21,0.00,0,,106
2012-10-2,69,61,53,56,49,45,83,63,42,29.93,29.87,29.83,10,10,6,12,4,17,0.02,7,Rain,40
2012-10-3,63,61,58,59,57,55,100,89,78,30.05,29.98,29.92,10,4,1,22,6,28,0.09,8,Rain,168
2012-10-4,77,65,53,58,55,51,100,70,40,30.09,30.05,29.99,10,6,2,22,10,32,0.21,5,Rain-Thunderstorm,223
2012-10-5,56,48,40,53,44,39,96,80,64,30.11,30.07,30.01,10,10,5,14,8,18,0.06,5,Rain,248
2012-10-6,46,42,37,40,37,32,92,76,60,30.16,30.08,29.99,10,10,9,15,7,20,T,7,Rain,258
2012-10-7,46,40,34,41,37,32,89,77,65,30.18,30.14,30.11,10,10,4,15,4,18,T,8,Rain,277
2012-10-8,55,44,33,33,29,27,92,64,35,30.22,30.16,30.09,10,10,10,17,9,23,0.00,1,,191
2012-10-9,62,51,40,40,36,29,76,58,39,30.09,29.97,29.83,10,10,10,23,14,32,0.05,0,,192
2012-10-10,47,42,36,45,37,27,93,71,49,30.19,29.97,29.85,10,8,5,23,9,35,0.15,8,Rain,279
2012-10-11,63,48,33,41,34,29,89,62,34,30.21,30.14,30.04,10,10,9,26,12,33,T,2,Rain,223
2012-10-12,53,43,32,41,32,21,93,62,30,30.47,30.37,30.22,10,9,5,12,3,17,0.05,2,Rain,18
2012-10-13,64,50,36,63,47,28,100,84,67,30.35,30.05,29.88,10,5,1,16,7,22,1.08,7,Rain,171
2012-10-14,73,61,49,63,59,48,100,88,76,29.86,29.63,29.43,10,5,2,31,15,45,0.72,8,Rain-Thunderstorm,209
2012-10-15,50,42,34,48,43,37,100,86,71,30.00,29.83,29.67,10,8,2,18,8,24,0.02,7,Rain,297
2012-10-16,61,46,31,43,37,31,100,75,49,30.00,29.90,29.68,10,7,2,17,7,25,T,1,,172
2012-10-17,72,64,55,55,50,44,86,64,41,29.67,29.59,29.47,10,9,4,33,13,39,0.20,4,Rain,173
2012-10-18,60,53,45,55,45,31,93,66,38,29.63,29.45,29.31,10,8,2,29,14,43,0.48,7,Rain,201
2012-10-19,50,47,43,46,44,42,100,93,86,29.62,29.54,29.50,10,7,2,18,7,25,0.45,8,Rain,171
2012-10-20,54,47,40,46,44,42,100,86,71,29.94,29.72,29.59,10,8,2,16,6,21,0.11,7,Rain,252
2012-10-21,61,50,38,46,43,39,100,76,51,30.11,30.04,29.95,10,8,2,14,5,17,0.00,2,,185
2012-10-22,68,58,48,61,54,45,97,80,63,30.06,30.00,29.92,10,7,1,26,6,36,0.89,5,Rain-Thunderstorm,171
2012-10-23,68,65,61,61,60,59,100,88,76,29.99,29.95,29.90,10,6,0,16,5,23,0.02,8,Fog-Rain-Thunderstorm,204
2012-10-24,77,68,58,61,59,57,97,77,56,30.01,29.97,29.93,10,9,6,15,7,18,T,2,,171
2012-10-25,77,63,48,59,56,51,93,74,54,29.94,29.87,29.78,10,10,9,29,15,37,T,3,Rain,193
2012-10-26,49,43,36,46,37,30,93,72,50,30.29,30.16,29.93,10,9,4,21,12,25,0.16,5,Rain,327
2012-10-27,51,41,30,34,31,28,92,67,42,30.29,30.26,30.20,10,10,10,17,8,23,0.00,0,,345
2012-10-28,48,40,31,31,28,24,89,67,45,30.27,30.24,30.20,10,10,10,16,8,23,0.00,3,,11
2012-10-29,46,40,33,28,24,20,75,57,39,30.22,30.12,29.90,10,10,10,29,18,40,0.00,0,,349
2012-10-30,41,39,37,37,32,23,92,71,50,29.86,29.70,29.62,10,9,5,24,20,39,0.02,7,Rain,339
2012-10-31,42,40,37,38,36,35,92,84,76,29.78,29.71,29.64,10,9,3,20,14,28,0.01,8,Rain,317